sensor_id;sensor_type;location;lat;lon;timestamp;pressure;altitude;pressure_sealevel;temperature;humidity
23433;BME280;41331;45.412;10.992;2023-01-23T00:01:32;101320.59;;;5.14;78.10
23433;BME280;41331;45.412;10.992;2023-01-23T00:04:01;101315.72;;;5.11;78.15
23433;BME280;41331;45.412;10.992;2023-01-23T00:06:29;101304.41;;;4.99;78.07
23433;BME280;41331;45.412;10.992;2023-01-23T00:08:56;101300.31;;;5.16;76.91
23433;BME280;41331;45.412;10.992;2023-01-23T00:11:26;101297.91;;;5.10;76.59
23433;BME280;41331;45.412;10.992;2023-01-23T00:13:55;101302.22;;;5.21;75.60
23433;BME280;41331;45.412;10.992;2023-01-23T00:16:25;101285.50;;;5.19;76.59
23433;BME280;41331;45.412;10.992;2023-01-23T00:18:55;101281.16;;;5.33;73.35
23433;BME280;41331;45.412;10.992;2023-01-23T00:21:24;101276.25;;;5.56;72.51
23433;BME280;41331;45.412;10.992;2023-01-23T00:23:54;101273.88;;;5.39;73.58
23433;BME280;41331;45.412;10.992;2023-01-23T00:26:25;101259.78;;;5.47;73.87
23433;BME280;41331;45.412;10.992;2023-01-23T00:28:54;101251.19;;;5.40;75.09
23433;BME280;41331;45.412;10.992;2023-01-23T00:31:28;101255.28;;;5.27;75.58
23433;BME280;41331;45.412;10.992;2023-01-23T00:33:59;101265.00;;;5.23;75.79
23433;BME280;41331;45.412;10.992;2023-01-23T00:36:46;101266.59;;;5.29;76.22
23433;BME280;41331;45.412;10.992;2023-01-23T00:39:21;101269.59;;;5.23;76.15
23433;BME280;41331;45.412;10.992;2023-01-23T00:41:49;101262.31;;;5.08;76.95
23433;BME280;41331;45.412;10.992;2023-01-23T00:44:17;101256.91;;;5.03;77.24
23433;BME280;41331;45.412;10.992;2023-01-23T00:46:44;101257.16;;;5.01;76.61
23433;BME280;41331;45.412;10.992;2023-01-23T00:49:12;101265.81;;;5.03;77.05
23433;BME280;41331;45.412;10.992;2023-01-23T00:51:39;101255.81;;;5.14;76.07
23433;BME280;41331;45.412;10.992;2023-01-23T00:54:07;101261.22;;;5.14;76.17
23433;BME280;41331;45.412;10.992;2023-01-23T00:56:34;101258.25;;;5.10;76.05
23433;BME280;41331;45.412;10.992;2023-01-23T00:59:02;101255.00;;;5.24;76.15
23433;BME280;41331;45.412;10.992;2023-01-23T01:01:30;101252.84;;;5.20;76.10
23433;BME280;41331;45.412;10.992;2023-01-23T01:03:59;101252.03;;;5.15;75.78
23433;BME280;41331;45.412;10.992;2023-01-23T01:06:28;101254.19;;;5.28;75.30
23433;BME280;41331;45.412;10.992;2023-01-23T01:08:57;101253.09;;;5.29;75.53
23433;BME280;41331;45.412;10.992;2023-01-23T01:11:25;101243.63;;;5.32;75.54
23433;BME280;41331;45.412;10.992;2023-01-23T01:13:53;101244.72;;;5.36;76.68
23433;BME280;41331;45.412;10.992;2023-01-23T01:16:21;101239.88;;;5.33;77.38
23433;BME280;41331;45.412;10.992;2023-01-23T01:18:50;101238.22;;;5.32;77.47
23433;BME280;41331;45.412;10.992;2023-01-23T01:21:18;101239.31;;;5.31;78.45
23433;BME280;41331;45.412;10.992;2023-01-23T01:23:46;101241.22;;;5.25;79.34
23433;BME280;41331;45.412;10.992;2023-01-23T01:26:13;101241.78;;;5.32;77.98
23433;BME280;41331;45.412;10.992;2023-01-23T01:28:41;101227.44;;;5.32;77.58
23433;BME280;41331;45.412;10.992;2023-01-23T01:31:13;101231.19;;;5.41;76.09
23433;BME280;41331;45.412;10.992;2023-01-23T01:33:42;101230.66;;;5.39;76.98
23433;BME280;41331;45.412;10.992;2023-01-23T01:36:13;101240.09;;;5.46;75.66
23433;BME280;41331;45.412;10.992;2023-01-23T01:38:41;101232.31;;;5.25;76.48
23433;BME280;41331;45.412;10.992;2023-01-23T01:41:09;101235.81;;;5.25;77.07
23433;BME280;41331;45.412;10.992;2023-01-23T01:43:38;101233.69;;;5.22;76.90
23433;BME280;41331;45.412;10.992;2023-01-23T01:48:45;101247.97;;;5.33;77.62
23433;BME280;41331;45.412;10.992;2023-01-23T01:56:38;101231.81;;;5.17;77.49
23433;BME280;41331;45.412;10.992;2023-01-23T01:59:08;101234.78;;;5.01;78.15
23433;BME280;41331;45.412;10.992;2023-01-23T02:01:38;101226.44;;;5.02;77.60
23433;BME280;41331;45.412;10.992;2023-01-23T02:04:08;101223.19;;;4.95;78.51
23433;BME280;41331;45.412;10.992;2023-01-23T02:06:35;101218.59;;;5.06;78.36
23433;BME280;41331;45.412;10.992;2023-01-23T02:11:32;101218.06;;;5.09;77.75
23433;BME280;41331;45.412;10.992;2023-01-23T02:14:00;101202.38;;;5.11;77.37
23433;BME280;41331;45.412;10.992;2023-01-23T02:16:30;101201.03;;;5.18;78.10
23433;BME280;41331;45.412;10.992;2023-01-23T02:19:03;101213.13;;;5.31;77.00
23433;BME280;41331;45.412;10.992;2023-01-23T02:21:35;101205.06;;;5.26;77.97
23433;BME280;41331;45.412;10.992;2023-01-23T02:24:18;101191.31;;;5.28;78.25
23433;BME280;41331;45.412;10.992;2023-01-23T02:26:50;101177.81;;;5.28;78.94
23433;BME280;41331;45.412;10.992;2023-01-23T02:29:18;101176.75;;;5.18;79.96
23433;BME280;41331;45.412;10.992;2023-01-23T02:31:50;101171.06;;;5.20;80.99
23433;BME280;41331;45.412;10.992;2023-01-23T02:34:20;101171.84;;;5.26;81.48
23433;BME280;41331;45.412;10.992;2023-01-23T02:36:50;101154.88;;;5.15;82.00
23433;BME280;41331;45.412;10.992;2023-01-23T02:39:19;101154.06;;;5.19;82.47
23433;BME280;41331;45.412;10.992;2023-01-23T02:41:51;101148.44;;;5.01;83.69
23433;BME280;41331;45.412;10.992;2023-01-23T02:44:27;101140.38;;;4.96;84.55
23433;BME280;41331;45.412;10.992;2023-01-23T02:47:07;101141.69;;;5.08;83.95
23433;BME280;41331;45.412;10.992;2023-01-23T02:49:39;101140.91;;;5.03;84.50
23433;BME280;41331;45.412;10.992;2023-01-23T02:52:09;101139.25;;;5.02;84.27
23433;BME280;41331;45.412;10.992;2023-01-23T02:54:37;101132.78;;;5.08;84.37
23433;BME280;41331;45.412;10.992;2023-01-23T02:57:06;101142.25;;;5.00;84.70
23433;BME280;41331;45.412;10.992;2023-01-23T02:59:34;101147.91;;;4.99;85.37
23433;BME280;41331;45.412;10.992;2023-01-23T03:02:20;101138.75;;;4.94;86.12
23433;BME280;41331;45.412;10.992;2023-01-23T03:04:47;101130.38;;;4.96;85.58
23433;BME280;41331;45.412;10.992;2023-01-23T03:07:15;101124.72;;;4.98;84.91
23433;BME280;41331;45.412;10.992;2023-01-23T03:09:42;101129.81;;;5.04;85.80
23433;BME280;41331;45.412;10.992;2023-01-23T03:12:14;101124.16;;;5.06;85.40
23433;BME280;41331;45.412;10.992;2023-01-23T03:14:41;101125.53;;;5.03;85.35
23433;BME280;41331;45.412;10.992;2023-01-23T03:17:10;101117.94;;;5.10;85.69
23433;BME280;41331;45.412;10.992;2023-01-23T03:19:37;101104.13;;;5.17;84.66
23433;BME280;41331;45.412;10.992;2023-01-23T03:22:05;101099.03;;;5.15;82.96
23433;BME280;41331;45.412;10.992;2023-01-23T03:24:33;101102.78;;;5.19;80.66
23433;BME280;41331;45.412;10.992;2023-01-23T03:27:01;101101.66;;;5.31;80.27
23433;BME280;41331;45.412;10.992;2023-01-23T03:29:36;101092.25;;;5.28;80.53
23433;BME280;41331;45.412;10.992;2023-01-23T03:32:22;101089.47;;;5.43;78.07
23433;BME280;41331;45.412;10.992;2023-01-23T03:34:54;101098.66;;;5.42;77.84
23433;BME280;41331;45.412;10.992;2023-01-23T03:37:22;101091.50;;;5.62;77.71
23433;BME280;41331;45.412;10.992;2023-01-23T03:39:50;101084.53;;;5.56;78.33
23433;BME280;41331;45.412;10.992;2023-01-23T03:42:36;101101.06;;;5.44;79.90
23433;BME280;41331;45.412;10.992;2023-01-23T03:45:06;101085.69;;;5.44;80.19
23433;BME280;41331;45.412;10.992;2023-01-23T03:47:35;101085.38;;;5.46;79.42
23433;BME280;41331;45.412;10.992;2023-01-23T03:50:02;101083.47;;;5.52;80.38
23433;BME280;41331;45.412;10.992;2023-01-23T03:52:35;101087.84;;;5.48;79.73
23433;BME280;41331;45.412;10.992;2023-01-23T03:55:05;101066.72;;;5.55;81.15
23433;BME280;41331;45.412;10.992;2023-01-23T03:57:33;101051.84;;;5.62;79.84
23433;BME280;41331;45.412;10.992;2023-01-23T04:00:10;101038.59;;;5.61;77.83
23433;BME280;41331;45.412;10.992;2023-01-23T04:02:40;101037.06;;;5.50;82.12
23433;BME280;41331;45.412;10.992;2023-01-23T04:05:10;101031.06;;;5.58;80.49
23433;BME280;41331;45.412;10.992;2023-01-23T04:07:38;101025.13;;;5.56;78.87
23433;BME280;41331;45.412;10.992;2023-01-23T04:10:05;101011.66;;;5.51;79.97
23433;BME280;41331;45.412;10.992;2023-01-23T04:12:33;101001.16;;;5.49;79.09
23433;BME280;41331;45.412;10.992;2023-01-23T04:15:01;101004.06;;;5.58;79.10
23433;BME280;41331;45.412;10.992;2023-01-23T04:17:30;100983.31;;;5.53;78.17
23433;BME280;41331;45.412;10.992;2023-01-23T04:19:57;100988.75;;;5.48;78.05
23433;BME280;41331;45.412;10.992;2023-01-23T04:22:25;100982.28;;;5.44;78.68
23433;BME280;41331;45.412;10.992;2023-01-23T04:24:52;100999.25;;;5.50;79.30
23433;BME280;41331;45.412;10.992;2023-01-23T04:27:20;100984.03;;;5.64;77.12
23433;BME280;41331;45.412;10.992;2023-01-23T04:29:49;100978.97;;;5.52;77.42
23433;BME280;41331;45.412;10.992;2023-01-23T04:32:17;100970.06;;;5.52;77.32
23433;BME280;41331;45.412;10.992;2023-01-23T04:34:46;100974.59;;;5.61;76.29
23433;BME280;41331;45.412;10.992;2023-01-23T04:37:14;100981.88;;;5.61;77.25
23433;BME280;41331;45.412;10.992;2023-01-23T04:39:42;100982.38;;;5.68;77.12
23433;BME280;41331;45.412;10.992;2023-01-23T04:42:10;100971.00;;;5.71;74.96
23433;BME280;41331;45.412;10.992;2023-01-23T04:45:08;100977.16;;;5.77;75.35
23433;BME280;41331;45.412;10.992;2023-01-23T04:48:05;100986.81;;;5.54;76.74
23433;BME280;41331;45.412;10.992;2023-01-23T04:50:35;100988.75;;;5.48;77.54
23433;BME280;41331;45.412;10.992;2023-01-23T04:53:04;100979.59;;;5.44;77.22
23433;BME280;41331;45.412;10.992;2023-01-23T04:55:33;100972.00;;;5.46;76.94
23433;BME280;41331;45.412;10.992;2023-01-23T04:58:03;100960.59;;;5.54;73.71
23433;BME280;41331;45.412;10.992;2023-01-23T05:00:31;100961.88;;;5.62;72.41
23433;BME280;41331;45.412;10.992;2023-01-23T05:03:00;100998.88;;;6.01;70.33
23433;BME280;41331;45.412;10.992;2023-01-23T05:05:29;100998.53;;;6.07;70.80
23433;BME280;41331;45.412;10.992;2023-01-23T05:07:59;101005.44;;;5.89;72.29
23433;BME280;41331;45.412;10.992;2023-01-23T05:10:28;100982.84;;;5.75;74.79
23433;BME280;41331;45.412;10.992;2023-01-23T05:12:59;100997.75;;;5.72;78.81
23433;BME280;41331;45.412;10.992;2023-01-23T05:15:27;100987.38;;;5.85;73.93
23433;BME280;41331;45.412;10.992;2023-01-23T05:17:57;100988.44;;;5.89;76.25
23433;BME280;41331;45.412;10.992;2023-01-23T05:20:24;100986.22;;;5.96;78.90
23433;BME280;41331;45.412;10.992;2023-01-23T05:22:54;100980.66;;;5.77;83.00
23433;BME280;41331;45.412;10.992;2023-01-23T05:25:32;100988.56;;;5.74;84.43
23433;BME280;41331;45.412;10.992;2023-01-23T05:28:00;100991.03;;;5.65;88.13
23433;BME280;41331;45.412;10.992;2023-01-23T05:30:29;100979.84;;;5.48;90.08
23433;BME280;41331;45.412;10.992;2023-01-23T05:33:12;100981.44;;;5.49;89.95
23433;BME280;41331;45.412;10.992;2023-01-23T05:35:40;100982.53;;;5.48;90.03
23433;BME280;41331;45.412;10.992;2023-01-23T05:38:08;100993.03;;;5.49;90.86
23433;BME280;41331;45.412;10.992;2023-01-23T05:40:36;101000.06;;;5.50;93.99
23433;BME280;41331;45.412;10.992;2023-01-23T05:43:24;100986.34;;;5.41;96.36
23433;BME280;41331;45.412;10.992;2023-01-23T05:46:25;100994.69;;;5.45;93.50
23433;BME280;41331;45.412;10.992;2023-01-23T05:48:52;101007.03;;;5.56;93.50
23433;BME280;41331;45.412;10.992;2023-01-23T05:51:20;101011.38;;;5.57;95.48
23433;BME280;41331;45.412;10.992;2023-01-23T05:53:50;101011.06;;;5.59;95.24
23433;BME280;41331;45.412;10.992;2023-01-23T05:56:18;100999.50;;;5.53;95.69
23433;BME280;41331;45.412;10.992;2023-01-23T05:59:12;101012.72;;;5.55;97.20
23433;BME280;41331;45.412;10.992;2023-01-23T06:01:45;100991.69;;;5.46;100.00
23433;BME280;41331;45.412;10.992;2023-01-23T06:04:31;101006.59;;;5.44;100.00
23433;BME280;41331;45.412;10.992;2023-01-23T06:07:12;100996.09;;;5.37;100.00
23433;BME280;41331;45.412;10.992;2023-01-23T06:09:41;100999.81;;;5.46;100.00
23433;BME280;41331;45.412;10.992;2023-01-23T06:12:09;100993.84;;;5.50;100.00
23433;BME280;41331;45.412;10.992;2023-01-23T06:14:37;100992.16;;;5.59;100.00
23433;BME280;41331;45.412;10.992;2023-01-23T06:17:06;101001.56;;;5.66;100.00
23433;BME280;41331;45.412;10.992;2023-01-23T06:19:34;100991.63;;;5.57;100.00
23433;BME280;41331;45.412;10.992;2023-01-23T06:22:02;100987.06;;;5.57;100.00
23433;BME280;41331;45.412;10.992;2023-01-23T06:24:37;100987.91;;;5.53;100.00
23433;BME280;41331;45.412;10.992;2023-01-23T06:27:05;100980.28;;;5.60;100.00
23433;BME280;41331;45.412;10.992;2023-01-23T06:29:37;100982.69;;;5.61;100.00
23433;BME280;41331;45.412;10.992;2023-01-23T06:32:05;100978.41;;;5.55;100.00
23433;BME280;41331;45.412;10.992;2023-01-23T06:34:34;100982.25;;;5.49;100.00
23433;BME280;41331;45.412;10.992;2023-01-23T06:37:04;100982.28;;;5.44;100.00
23433;BME280;41331;45.412;10.992;2023-01-23T06:39:32;100981.75;;;5.42;100.00
23433;BME280;41331;45.412;10.992;2023-01-23T06:42:01;100988.19;;;5.46;100.00
23433;BME280;41331;45.412;10.992;2023-01-23T06:44:36;100979.84;;;5.48;100.00
23433;BME280;41331;45.412;10.992;2023-01-23T06:47:04;100980.78;;;5.62;100.00
23433;BME280;41331;45.412;10.992;2023-01-23T06:49:32;100994.06;;;5.58;100.00
23433;BME280;41331;45.412;10.992;2023-01-23T06:52:00;100986.50;;;5.55;100.00
23433;BME280;41331;45.412;10.992;2023-01-23T06:54:28;100985.25;;;5.48;100.00
23433;BME280;41331;45.412;10.992;2023-01-23T06:57:00;100980.66;;;5.48;100.00
23433;BME280;41331;45.412;10.992;2023-01-23T06:59:28;100981.63;;;5.62;100.00
23433;BME280;41331;45.412;10.992;2023-01-23T07:01:58;100975.72;;;5.55;100.00
23433;BME280;41331;45.412;10.992;2023-01-23T07:04:36;100977.09;;;5.53;100.00
23433;BME280;41331;45.412;10.992;2023-01-23T07:07:04;100966.34;;;5.48;100.00
23433;BME280;41331;45.412;10.992;2023-01-23T07:09:32;100967.91;;;5.54;100.00
23433;BME280;41331;45.412;10.992;2023-01-23T07:12:08;100966.84;;;5.50;100.00
23433;BME280;41331;45.412;10.992;2023-01-23T07:14:36;100963.22;;;5.64;100.00
23433;BME280;41331;45.412;10.992;2023-01-23T07:17:03;100971.53;;;5.73;100.00
23433;BME280;41331;45.412;10.992;2023-01-23T07:19:31;100952.09;;;5.71;100.00
23433;BME280;41331;45.412;10.992;2023-01-23T07:22:00;100959.09;;;5.72;100.00
23433;BME280;41331;45.412;10.992;2023-01-23T07:24:27;100962.34;;;5.74;100.00
23433;BME280;41331;45.412;10.992;2023-01-23T07:26:57;100954.00;;;5.70;100.00
23433;BME280;41331;45.412;10.992;2023-01-23T07:29:25;100960.75;;;5.73;100.00
23433;BME280;41331;45.412;10.992;2023-01-23T07:31:53;100955.56;;;5.77;100.00
23433;BME280;41331;45.412;10.992;2023-01-23T07:34:20;100961.50;;;5.79;100.00
23433;BME280;41331;45.412;10.992;2023-01-23T07:36:48;100944.25;;;5.75;99.66
23433;BME280;41331;45.412;10.992;2023-01-23T07:39:15;100958.81;;;5.79;99.75
23433;BME280;41331;45.412;10.992;2023-01-23T07:41:43;100955.59;;;5.71;100.00
23433;BME280;41331;45.412;10.992;2023-01-23T07:44:15;100966.09;;;5.78;100.00
23433;BME280;41331;45.412;10.992;2023-01-23T07:46:44;100973.66;;;5.76;100.00
23433;BME280;41331;45.412;10.992;2023-01-23T07:49:12;100965.59;;;5.71;100.00
23433;BME280;41331;45.412;10.992;2023-01-23T07:51:40;100974.84;;;5.65;100.00
23433;BME280;41331;45.412;10.992;2023-01-23T07:54:08;100974.84;;;5.65;100.00
23433;BME280;41331;45.412;10.992;2023-01-23T07:56:35;100986.03;;;5.82;100.00
23433;BME280;41331;45.412;10.992;2023-01-23T07:59:03;100969.34;;;5.75;100.00
23433;BME280;41331;45.412;10.992;2023-01-23T08:01:31;100990.97;;;5.75;100.00
23433;BME280;41331;45.412;10.992;2023-01-23T08:03:58;100992.81;;;5.80;100.00
23433;BME280;41331;45.412;10.992;2023-01-23T08:06:26;100988.94;;;5.57;100.00
23433;BME280;41331;45.412;10.992;2023-01-23T08:08:54;100998.41;;;5.54;100.00
23433;BME280;41331;45.412;10.992;2023-01-23T08:11:21;100992.97;;;5.59;100.00
23433;BME280;41331;45.412;10.992;2023-01-23T08:13:50;101005.41;;;5.55;100.00
23433;BME280;41331;45.412;10.992;2023-01-23T08:16:18;100997.66;;;5.49;100.00
23433;BME280;41331;45.412;10.992;2023-01-23T08:18:45;100987.69;;;5.44;100.00
23433;BME280;41331;45.412;10.992;2023-01-23T08:21:13;100993.91;;;5.39;100.00
23433;BME280;41331;45.412;10.992;2023-01-23T08:23:40;100999.59;;;5.38;100.00
23433;BME280;41331;45.412;10.992;2023-01-23T08:26:11;100998.81;;;5.37;100.00
23433;BME280;41331;45.412;10.992;2023-01-23T08:28:42;101007.44;;;5.34;100.00
23433;BME280;41331;45.412;10.992;2023-01-23T08:31:10;101010.13;;;5.39;100.00
23433;BME280;41331;45.412;10.992;2023-01-23T08:33:40;101004.25;;;5.27;100.00
23433;BME280;41331;45.412;10.992;2023-01-23T08:36:10;101018.22;;;5.39;100.00
23433;BME280;41331;45.412;10.992;2023-01-23T08:38:38;101016.34;;;5.35;100.00
23433;BME280;41331;45.412;10.992;2023-01-23T08:41:06;101017.94;;;5.41;100.00
23433;BME280;41331;45.412;10.992;2023-01-23T08:43:36;101021.16;;;5.43;100.00
23433;BME280;41331;45.412;10.992;2023-01-23T08:46:04;101018.69;;;5.46;100.00
23433;BME280;41331;45.412;10.992;2023-01-23T08:48:31;101027.59;;;5.47;100.00
23433;BME280;41331;45.412;10.992;2023-01-23T08:51:03;101022.00;;;5.38;100.00
23433;BME280;41331;45.412;10.992;2023-01-23T08:53:31;101038.69;;;5.45;100.00
23433;BME280;41331;45.412;10.992;2023-01-23T08:56:00;101031.13;;;5.48;100.00
23433;BME280;41331;45.412;10.992;2023-01-23T08:58:29;101037.06;;;5.50;100.00
23433;BME280;41331;45.412;10.992;2023-01-23T09:00:56;101037.84;;;5.50;100.00
23433;BME280;41331;45.412;10.992;2023-01-23T09:03:25;101044.22;;;5.69;100.00
23433;BME280;41331;45.412;10.992;2023-01-23T09:05:52;101054.19;;;5.74;100.00
23433;BME280;41331;45.412;10.992;2023-01-23T09:08:20;101048.75;;;5.79;100.00
23433;BME280;41331;45.412;10.992;2023-01-23T09:10:48;101055.72;;;5.85;100.00
23433;BME280;41331;45.412;10.992;2023-01-23T09:13:15;101055.06;;;6.04;100.00
23433;BME280;41331;45.412;10.992;2023-01-23T09:15:43;101066.00;;;6.22;100.00
23433;BME280;41331;45.412;10.992;2023-01-23T09:18:11;101053.44;;;6.08;100.00
23433;BME280;41331;45.412;10.992;2023-01-23T09:20:38;101050.91;;;6.16;100.00
23433;BME280;41331;45.412;10.992;2023-01-23T09:23:06;101054.69;;;6.15;100.00
23433;BME280;41331;45.412;10.992;2023-01-23T09:25:33;101060.59;;;6.22;100.00
23433;BME280;41331;45.412;10.992;2023-01-23T09:28:01;101066.28;;;6.21;100.00
23433;BME280;41331;45.412;10.992;2023-01-23T09:30:28;101064.16;;;6.18;100.00
23433;BME280;41331;45.412;10.992;2023-01-23T09:32:56;101049.34;;;6.10;100.00
23433;BME280;41331;45.412;10.992;2023-01-23T09:35:23;101052.88;;;6.06;100.00
23433;BME280;41331;45.412;10.992;2023-01-23T09:37:51;101071.75;;;6.11;100.00
23433;BME280;41331;45.412;10.992;2023-01-23T09:40:34;101056.16;;;6.03;100.00
23433;BME280;41331;45.412;10.992;2023-01-23T09:45:49;101056.31;;;6.16;100.00
23433;BME280;41331;45.412;10.992;2023-01-23T09:48:33;101062.50;;;6.17;100.00
23433;BME280;41331;45.412;10.992;2023-01-23T09:51:14;101077.72;;;6.13;100.00
23433;BME280;41331;45.412;10.992;2023-01-23T09:53:44;101086.56;;;6.18;100.00
23433;BME280;41331;45.412;10.992;2023-01-23T09:58:59;101086.53;;;6.23;100.00
23433;BME280;41331;45.412;10.992;2023-01-23T10:01:29;101081.97;;;6.19;100.00
23433;BME280;41331;45.412;10.992;2023-01-23T10:03:58;101077.41;;;6.14;100.00
23433;BME280;41331;45.412;10.992;2023-01-23T10:06:29;101084.94;;;6.22;100.00
23433;BME280;41331;45.412;10.992;2023-01-23T10:09:26;101080.59;;;6.21;100.00
23433;BME280;41331;45.412;10.992;2023-01-23T10:12:12;101084.88;;;6.28;100.00
23433;BME280;41331;45.412;10.992;2023-01-23T10:17:46;101078.78;;;6.12;100.00
23433;BME280;41331;45.412;10.992;2023-01-23T10:25:39;101086.56;;;6.18;100.00
23433;BME280;41331;45.412;10.992;2023-01-23T10:28:17;101090.34;;;6.17;100.00
23433;BME280;41331;45.412;10.992;2023-01-23T10:30:51;101066.91;;;6.13;100.00
23433;BME280;41331;45.412;10.992;2023-01-23T10:33:35;101081.69;;;6.20;100.00
23433;BME280;41331;45.412;10.992;2023-01-23T10:36:17;101081.09;;;6.29;100.00
23433;BME280;41331;45.412;10.992;2023-01-23T10:38:59;101083.59;;;6.20;100.00
23433;BME280;41331;45.412;10.992;2023-01-23T10:41:29;101071.69;;;6.21;100.00
23433;BME280;41331;45.412;10.992;2023-01-23T10:43:56;101064.53;;;6.35;100.00
23433;BME280;41331;45.412;10.992;2023-01-23T10:46:38;101061.81;;;6.35;100.00
23433;BME280;41331;45.412;10.992;2023-01-23T10:49:08;101061.34;;;6.28;100.00
23433;BME280;41331;45.412;10.992;2023-01-23T10:57:01;101057.47;;;6.39;100.00
23433;BME280;41331;45.412;10.992;2023-01-23T10:59:32;101068.78;;;6.41;100.00
23433;BME280;41331;45.412;10.992;2023-01-23T11:02:02;101067.19;;;6.40;100.00
23433;BME280;41331;45.412;10.992;2023-01-23T11:04:35;101055.28;;;6.41;100.00
23433;BME280;41331;45.412;10.992;2023-01-23T11:07:16;101049.00;;;6.46;100.00
23433;BME280;41331;45.412;10.992;2023-01-23T11:09:56;101049.75;;;6.52;100.00
23433;BME280;41331;45.412;10.992;2023-01-23T11:12:29;101048.97;;;6.51;100.00
23433;BME280;41331;45.412;10.992;2023-01-23T11:15:28;101050.06;;;6.50;100.00
23433;BME280;41331;45.412;10.992;2023-01-23T11:17:59;101055.34;;;6.60;100.00
23433;BME280;41331;45.412;10.992;2023-01-23T11:20:34;101051.00;;;6.64;100.00
23433;BME280;41331;45.412;10.992;2023-01-23T11:23:03;101052.84;;;6.69;100.00
23433;BME280;41331;45.412;10.992;2023-01-23T11:25:35;101043.56;;;6.75;100.00
23433;BME280;41331;45.412;10.992;2023-01-23T11:31:08;101045.97;;;6.77;100.00
23433;BME280;41331;45.412;10.992;2023-01-23T11:33:51;101032.25;;;6.73;100.00
23433;BME280;41331;45.412;10.992;2023-01-23T11:42:26;100996.03;;;6.93;100.00
23433;BME280;41331;45.412;10.992;2023-01-23T11:44:57;100966.63;;;7.05;100.00
23433;BME280;41331;45.412;10.992;2023-01-23T11:50:11;100995.06;;;7.03;100.00
23433;BME280;41331;45.412;10.992;2023-01-23T12:01:29;101034.38;;;7.19;100.00
23433;BME280;41331;45.412;10.992;2023-01-23T12:09:55;101023.63;;;7.33;100.00
23433;BME280;41331;45.412;10.992;2023-01-23T12:26:20;101038.94;;;7.61;100.00
23433;BME280;41331;45.412;10.992;2023-01-23T12:37:24;101029.38;;;7.83;100.00
23433;BME280;41331;45.412;10.992;2023-01-23T12:47:41;101015.81;;;8.01;100.00
23433;BME280;41331;45.412;10.992;2023-01-23T12:50:34;100993.28;;;8.20;100.00
23433;BME280;41331;45.412;10.992;2023-01-23T12:53:11;101000.53;;;8.38;100.00
23433;BME280;41331;45.412;10.992;2023-01-23T12:55:56;100993.16;;;8.44;99.28
23433;BME280;41331;45.412;10.992;2023-01-23T12:58:28;100998.97;;;8.65;97.78
23433;BME280;41331;45.412;10.992;2023-01-23T13:03:50;101021.19;;;8.80;94.68
23433;BME280;41331;45.412;10.992;2023-01-23T13:09:31;101012.13;;;8.99;92.58
23433;BME280;41331;45.412;10.992;2023-01-23T13:14:39;101013.75;;;9.00;92.77
23433;BME280;41331;45.412;10.992;2023-01-23T13:17:35;101019.34;;;9.03;92.20
23433;BME280;41331;45.412;10.992;2023-01-23T13:23:30;101029.31;;;9.08;90.50
23433;BME280;41331;45.412;10.992;2023-01-23T13:28:46;101025.09;;;9.16;93.61
23433;BME280;41331;45.412;10.992;2023-01-23T13:31:31;101040.47;;;9.06;93.32
23433;BME280;41331;45.412;10.992;2023-01-23T13:34:01;101027.41;;;8.95;93.49
23433;BME280;41331;45.412;10.992;2023-01-23T13:36:48;101026.63;;;8.94;92.50
23433;BME280;41331;45.412;10.992;2023-01-23T13:42:32;101034.97;;;8.84;93.46
23433;BME280;41331;45.412;10.992;2023-01-23T13:44:32;101047.91;;;8.87;91.06
23433;BME280;41331;45.412;10.992;2023-01-23T13:47:25;101045.53;;;8.86;90.21
23433;BME280;41331;45.412;10.992;2023-01-23T13:50:34;101069.44;;;8.97;90.63
23433;BME280;41331;45.412;10.992;2023-01-23T13:53:24;101096.78;;;9.01;90.63
23433;BME280;41331;45.412;10.992;2023-01-23T13:56:26;101072.66;;;8.99;91.41
23433;BME280;41331;45.412;10.992;2023-01-23T13:59:29;101089.66;;;9.05;91.50
23433;BME280;41331;45.412;10.992;2023-01-23T14:05:37;101089.44;;;9.01;89.58
23433;BME280;41331;45.412;10.992;2023-01-23T14:08:21;101099.31;;;8.97;91.35
23433;BME280;41331;45.412;10.992;2023-01-23T14:11:12;101081.63;;;9.00;90.52
23433;BME280;41331;45.412;10.992;2023-01-23T14:13:54;101097.41;;;9.12;90.61
23433;BME280;41331;45.412;10.992;2023-01-23T14:16:55;101080.63;;;9.10;90.15
23433;BME280;41331;45.412;10.992;2023-01-23T14:22:29;101122.53;;;9.31;86.84
23433;BME280;41331;45.412;10.992;2023-01-23T14:25:13;101092.16;;;9.29;86.05
23433;BME280;41331;45.412;10.992;2023-01-23T14:27:42;101124.47;;;9.30;86.46
23433;BME280;41331;45.412;10.992;2023-01-23T14:30:24;101102.63;;;9.22;86.91
23433;BME280;41331;45.412;10.992;2023-01-23T14:32:56;101126.16;;;9.26;85.16
23433;BME280;41331;45.412;10.992;2023-01-23T14:35:30;101127.38;;;9.34;84.23
23433;BME280;41331;45.412;10.992;2023-01-23T14:38:03;101133.03;;;9.24;85.31
23433;BME280;41331;45.412;10.992;2023-01-23T14:40:31;101119.34;;;9.15;86.53
23433;BME280;41331;45.412;10.992;2023-01-23T14:43:19;101139.63;;;9.18;87.69
23433;BME280;41331;45.412;10.992;2023-01-23T14:45:54;101156.84;;;8.99;88.95
23433;BME280;41331;45.412;10.992;2023-01-23T14:48:23;101150.41;;;8.95;87.64
23433;BME280;41331;45.412;10.992;2023-01-23T14:51:19;101150.88;;;8.97;87.50
23433;BME280;41331;45.412;10.992;2023-01-23T14:53:56;101144.16;;;8.95;87.32
23433;BME280;41331;45.412;10.992;2023-01-23T14:56:27;101147.78;;;8.90;87.70
23433;BME280;41331;45.412;10.992;2023-01-23T14:58:57;101158.63;;;8.90;86.60
23433;BME280;41331;45.412;10.992;2023-01-23T15:01:30;101185.59;;;9.00;86.00